createdAt,value
2023-12-10T00:01:59.956Z,33.22
2023-12-10T00:05:04.238Z,30.08
2023-12-10T00:08:06.822Z,31.10
2023-12-10T00:11:09.451Z,30.73
2023-12-10T00:14:12.058Z,32.20
2023-12-10T00:17:14.587Z,30.95
2023-12-10T00:20:18.452Z,29.00
2023-12-10T00:23:21.584Z,27.08
2023-12-10T00:26:24.106Z,29.25
2023-12-10T00:29:26.690Z,24.13
2023-12-10T00:32:29.389Z,25.45
2023-12-10T00:35:33.457Z,26.20
2023-12-10T00:38:35.980Z,25.55
2023-12-10T00:41:39.213Z,25.73
2023-12-10T00:44:41.750Z,26.77
2023-12-10T00:47:44.344Z,23.90
2023-12-10T00:50:48.686Z,23.20
2023-12-10T00:53:52.008Z,23.33
2023-12-10T00:56:54.535Z,27.30
2023-12-10T00:59:57.516Z,23.95
2023-12-10T01:03:00.103Z,20.48
2023-12-10T01:06:05.253Z,20.23
2023-12-10T01:09:10.033Z,20.60
2023-12-10T01:12:12.607Z,23.08
2023-12-10T01:15:15.141Z,19.58
2023-12-10T01:18:17.964Z,23.23
2023-12-10T01:21:21.909Z,23.05
2023-12-10T01:24:24.452Z,24.52
2023-12-10T01:27:27.085Z,21.85
2023-12-10T01:30:30.599Z,22.77
2023-12-10T01:33:33.511Z,20.38
2023-12-10T01:36:37.536Z,23.83
2023-12-10T01:39:40.064Z,21.80
2023-12-10T01:42:43.957Z,22.30
2023-12-10T01:45:50.170Z,21.45
2023-12-10T01:48:56.528Z,22.27
2023-12-10T01:52:00.518Z,18.75
2023-12-10T01:55:04.838Z,21.90
2023-12-10T01:58:07.671Z,18.17
2023-12-10T02:01:10.805Z,20.40
2023-12-10T02:04:14.100Z,18.98
2023-12-10T02:07:18.159Z,23.08
2023-12-10T02:10:20.706Z,22.80
2023-12-10T02:13:24.980Z,23.88
2023-12-10T02:16:27.721Z,22.88
2023-12-10T02:19:30.297Z,22.58
2023-12-10T02:22:34.883Z,27.27
2023-12-10T02:25:40.329Z,25.30
2023-12-10T02:28:43.676Z,27.17
2023-12-10T02:31:46.204Z,22.92
2023-12-10T02:34:48.789Z,24.85
2023-12-10T02:37:51.891Z,27.95
2023-12-10T02:40:55.933Z,24.23
2023-12-10T02:43:58.454Z,28.60
2023-12-10T02:47:00.982Z,27.45
2023-12-10T02:50:03.692Z,26.42
2023-12-10T02:53:06.718Z,23.27
2023-12-10T02:56:11.271Z,24.70
2023-12-10T02:59:13.957Z,23.90
2023-12-10T03:02:16.689Z,25.90
2023-12-10T03:05:19.244Z,24.30
2023-12-10T03:08:21.765Z,24.40
2023-12-10T03:11:25.592Z,25.75
2023-12-10T03:14:28.097Z,25.80
2023-12-10T03:17:30.683Z,24.45
2023-12-10T03:20:33.261Z,26.38
2023-12-10T03:23:35.766Z,26.05
2023-12-10T03:26:39.816Z,25.85
2023-12-10T03:29:42.323Z,30.27
2023-12-10T03:32:44.881Z,29.85
2023-12-10T03:35:47.449Z,28.00
2023-12-10T03:38:50.028Z,29.60
2023-12-10T03:41:54.917Z,28.15
2023-12-10T03:44:58.385Z,30.90
2023-12-10T03:48:00.925Z,27.65
2023-12-10T03:51:03.459Z,30.75
2023-12-10T03:54:06.264Z,32.47
2023-12-10T03:57:10.119Z,30.52
2023-12-10T04:00:13.215Z,27.42
2023-12-10T04:03:15.844Z,27.80
2023-12-10T04:06:19.447Z,33.47
2023-12-10T04:09:22.011Z,27.73
2023-12-10T04:12:26.035Z,29.35
2023-12-10T04:15:28.889Z,30.35
2023-12-10T04:18:31.540Z,28.15
2023-12-10T04:21:34.485Z,29.90
2023-12-10T04:24:37.127Z,31.48
2023-12-10T04:27:40.972Z,30.38
2023-12-10T04:30:43.565Z,29.63
2023-12-10T04:33:46.604Z,33.10
2023-12-10T04:36:49.551Z,31.02
2023-12-10T04:39:52.203Z,27.70
2023-12-10T04:42:56.084Z,30.92
2023-12-10T04:45:59.390Z,27.83
2023-12-10T04:49:02.045Z,28.27
2023-12-10T04:52:05.214Z,28.55
2023-12-10T04:55:08.430Z,28.38
2023-12-10T04:58:12.281Z,30.65
2023-12-10T05:01:14.894Z,29.65
2023-12-10T05:04:17.554Z,30.20
2023-12-10T05:07:20.229Z,31.00
2023-12-10T05:10:23.143Z,28.70
2023-12-10T05:13:27.131Z,33.92
2023-12-10T05:16:29.734Z,30.83
2023-12-10T05:19:32.450Z,29.98
2023-12-10T05:22:35.213Z,28.63
2023-12-10T05:25:38.255Z,30.90
2023-12-10T05:28:42.085Z,24.88
2023-12-10T05:31:45.155Z,25.08
2023-12-10T05:34:47.829Z,28.50
2023-12-10T05:37:54.016Z,26.77
2023-12-10T05:40:56.528Z,29.42
2023-12-10T05:44:00.383Z,25.38
2023-12-10T05:47:03.783Z,26.00
2023-12-10T05:50:06.767Z,25.13
2023-12-10T05:53:09.275Z,26.85
2023-12-10T05:56:11.911Z,25.75
2023-12-10T05:59:16.213Z,27.77
2023-12-10T06:02:19.490Z,26.25
2023-12-10T06:05:22.547Z,27.10
2023-12-10T06:08:25.113Z,27.17
2023-12-10T06:11:27.640Z,26.02
2023-12-10T06:14:31.475Z,24.67
2023-12-10T06:17:34.056Z,27.23
2023-12-10T06:20:36.816Z,26.55
2023-12-10T06:23:39.319Z,26.08
2023-12-10T06:26:41.842Z,24.27
2023-12-10T06:29:45.741Z,26.20
2023-12-10T06:32:48.328Z,23.00
2023-12-10T06:35:51.196Z,22.13
2023-12-10T06:38:53.900Z,20.85
2023-12-10T06:41:56.438Z,21.55
2023-12-10T06:45:00.378Z,22.02
2023-12-10T06:48:04.790Z,21.00
2023-12-10T06:51:08.090Z,22.73
2023-12-10T06:54:11.574Z,20.52
2023-12-10T06:57:14.206Z,19.35
2023-12-10T07:00:21.127Z,19.95
2023-12-10T07:03:23.897Z,20.08
2023-12-10T07:06:26.494Z,19.65
2023-12-10T07:09:29.095Z,18.58
2023-12-10T07:12:32.215Z,21.48
2023-12-10T07:15:36.254Z,20.75
2023-12-10T07:18:39.003Z,20.80
2023-12-10T07:21:42.161Z,16.85
2023-12-10T07:24:44.845Z,19.55
2023-12-10T07:27:48.611Z,18.33
2023-12-10T07:30:53.391Z,19.35
2023-12-10T07:33:56.006Z,20.83
2023-12-10T07:36:58.716Z,16.85
2023-12-10T07:40:01.303Z,19.75
2023-12-10T07:43:03.988Z,19.08
2023-12-10T07:46:08.280Z,23.42
2023-12-10T07:49:10.915Z,21.10
2023-12-10T07:52:13.519Z,19.77
2023-12-10T07:55:16.898Z,20.58
2023-12-10T07:58:19.408Z,19.10
2023-12-10T08:01:23.313Z,20.42
2023-12-10T08:04:25.955Z,21.88
2023-12-10T08:07:28.482Z,19.80
2023-12-10T08:10:31.216Z,22.30
2023-12-10T08:13:33.770Z,21.45
2023-12-10T08:16:38.899Z,23.02
2023-12-10T08:19:41.987Z,22.30
2023-12-10T08:22:44.645Z,22.60
2023-12-10T08:25:47.277Z,21.58
2023-12-10T08:28:49.816Z,23.65
2023-12-10T08:31:53.648Z,23.05
2023-12-10T08:34:56.237Z,25.10
2023-12-10T08:37:59.023Z,25.02
2023-12-10T08:41:01.789Z,26.10
2023-12-10T08:44:04.353Z,24.52
2023-12-10T08:47:08.558Z,26.17
2023-12-10T08:50:11.562Z,22.25
2023-12-10T08:53:14.174Z,35.42
2023-12-10T08:56:16.790Z,32.22
2023-12-10T08:59:19.340Z,32.33
2023-12-10T09:02:23.175Z,26.45
2023-12-10T09:05:25.721Z,22.45
2023-12-10T09:08:28.301Z,27.27
2023-12-10T09:11:31.811Z,25.23
2023-12-10T09:14:34.449Z,25.77
2023-12-10T09:17:38.542Z,25.13
2023-12-10T09:20:41.161Z,26.20
2023-12-10T09:23:44.704Z,23.20
2023-12-10T09:26:47.273Z,22.70
2023-12-10T09:29:49.848Z,23.15
2023-12-10T09:32:53.812Z,21.77
2023-12-10T09:35:56.469Z,24.65
2023-12-10T09:38:59.010Z,25.23
2023-12-10T09:42:01.547Z,22.27
2023-12-10T09:45:04.669Z,29.45
2023-12-10T09:48:09.004Z,24.08
2023-12-10T09:51:11.693Z,22.60
2023-12-10T09:54:15.022Z,22.35
2023-12-10T09:57:17.772Z,21.05
2023-12-10T10:00:20.717Z,26.70
2023-12-10T10:03:25.067Z,21.42
2023-12-10T10:06:28.362Z,22.10
2023-12-10T10:09:35.416Z,22.70
2023-12-10T10:12:40.830Z,21.35
2023-12-10T10:15:43.597Z,24.40
2023-12-10T10:18:49.098Z,25.42
2023-12-10T10:21:52.132Z,21.38
2023-12-10T10:24:55.516Z,21.15
2023-12-10T10:27:58.128Z,26.48
2023-12-10T10:31:00.709Z,21.77
2023-12-10T10:34:06.757Z,25.80
2023-12-10T10:37:09.572Z,22.25
2023-12-10T10:40:12.768Z,21.85
2023-12-10T10:43:15.354Z,21.30
2023-12-10T10:46:20.442Z,21.25
2023-12-10T10:49:24.499Z,22.90
2023-12-10T10:52:29.097Z,24.55
2023-12-10T10:55:32.542Z,19.77
2023-12-10T10:58:35.089Z,20.77
2023-12-10T11:01:38.875Z,18.27
2023-12-10T11:04:43.208Z,17.67
2023-12-10T11:07:49.814Z,15.85
2023-12-10T11:10:59.595Z,18.63
2023-12-10T11:14:02.148Z,17.55
2023-12-10T11:17:07.786Z,18.73
2023-12-10T11:20:31.379Z,16.10
2023-12-10T11:23:34.961Z,15.45
2023-12-10T11:26:37.484Z,11.90
2023-12-10T11:29:40.104Z,17.67
2023-12-10T11:32:43.482Z,17.02
2023-12-10T11:36:17.510Z,10.40
2023-12-10T11:39:14.352Z,18.67
2023-12-10T11:42:16.888Z,12.60
2023-12-10T11:45:19.491Z,12.23
2023-12-10T11:48:22.466Z,15.13
2023-12-10T11:51:27.179Z,13.63
2023-12-10T11:54:29.999Z,9.90
2023-12-10T11:57:32.716Z,11.50
2023-12-10T12:00:35.904Z,13.18
2023-12-10T12:03:39.074Z,8.23
2023-12-10T12:06:44.538Z,9.10
2023-12-10T12:09:48.639Z,13.35
2023-12-10T12:12:52.249Z,11.07
2023-12-10T12:15:54.871Z,13.13
2023-12-10T12:18:57.608Z,12.38
2023-12-10T12:22:01.847Z,11.55
2023-12-10T12:25:04.767Z,10.02
2023-12-10T12:28:08.788Z,10.30
2023-12-10T12:31:11.324Z,10.85
2023-12-10T12:34:14.734Z,11.60
2023-12-10T12:37:18.843Z,12.35
2023-12-10T12:40:21.742Z,9.98
2023-12-10T12:43:24.275Z,8.40
2023-12-10T12:46:26.897Z,10.65
2023-12-10T12:49:29.540Z,9.85
2023-12-10T12:52:33.528Z,9.73
2023-12-10T12:55:36.175Z,12.68
2023-12-10T12:58:39.463Z,14.63
2023-12-10T13:01:42.097Z,12.23
2023-12-10T13:04:44.678Z,10.98
2023-12-10T13:07:48.523Z,14.75
2023-12-10T13:10:51.041Z,10.93
2023-12-10T13:13:53.857Z,6.28
2023-12-10T13:16:56.603Z,9.32
2023-12-10T13:19:59.149Z,8.13
2023-12-10T13:23:03.332Z,9.48
2023-12-10T13:26:05.906Z,8.32
2023-12-10T13:29:08.474Z,9.13
2023-12-10T13:32:11.715Z,10.43
2023-12-10T13:35:14.513Z,13.15
2023-12-10T13:38:18.510Z,7.35
2023-12-10T13:41:21.169Z,9.95
2023-12-10T13:44:23.836Z,10.80
2023-12-10T13:47:26.468Z,6.75
2023-12-10T13:50:29.156Z,6.32
2023-12-10T13:53:33.119Z,6.47
2023-12-10T13:56:35.656Z,10.05
2023-12-10T13:59:38.133Z,8.68
2023-12-10T14:02:40.972Z,10.00
2023-12-10T14:05:43.879Z,8.48
2023-12-10T14:08:50.651Z,7.55
2023-12-10T14:11:54.596Z,3.50
2023-12-10T14:14:57.211Z,9.80
2023-12-10T14:17:59.793Z,6.88
2023-12-10T14:21:02.789Z,7.00
2023-12-10T14:24:07.121Z,5.78
2023-12-10T14:27:09.656Z,5.57
2023-12-10T14:30:12.869Z,4.15
2023-12-10T14:33:15.529Z,7.53
2023-12-10T14:36:18.121Z,5.60
2023-12-10T14:39:23.986Z,8.05
2023-12-10T14:42:26.651Z,5.93
2023-12-10T14:45:29.280Z,5.53
2023-12-10T14:48:32.062Z,5.82
2023-12-10T14:51:34.860Z,7.30
2023-12-10T14:54:38.881Z,8.00
2023-12-10T14:57:41.509Z,3.33
2023-12-10T15:00:44.815Z,3.72
2023-12-10T15:03:47.573Z,7.25
2023-12-10T15:06:50.155Z,5.80
2023-12-10T15:09:54.036Z,4.65
2023-12-10T15:12:56.834Z,2.78
2023-12-10T15:15:59.529Z,3.38
2023-12-10T15:19:02.467Z,3.50
2023-12-10T15:22:05.636Z,3.47
2023-12-10T15:25:10.349Z,2.97
2023-12-10T15:28:13.165Z,2.47
2023-12-10T15:31:15.876Z,3.53
2023-12-10T15:34:18.471Z,3.20
2023-12-10T15:37:21.091Z,3.38
2023-12-10T15:40:25.589Z,3.88
2023-12-10T15:43:28.185Z,2.72
2023-12-10T15:46:30.672Z,4.88
2023-12-10T15:49:33.272Z,4.93
2023-12-10T15:52:40.874Z,5.25
2023-12-10T15:55:45.456Z,5.60
2023-12-10T15:58:48.054Z,3.33
2023-12-10T16:01:50.654Z,6.85
2023-12-10T16:04:53.162Z,5.07
2023-12-10T16:07:55.954Z,5.07
2023-12-10T16:10:59.981Z,4.68
2023-12-10T16:14:05.455Z,6.20
2023-12-10T16:17:11.106Z,4.72
2023-12-10T16:20:13.914Z,4.45
2023-12-10T16:23:16.646Z,4.35
2023-12-10T16:26:22.245Z,8.57
2023-12-10T16:29:24.887Z,6.88
2023-12-10T16:32:27.414Z,5.35
2023-12-10T16:35:29.937Z,6.97
2023-12-10T16:38:32.456Z,8.43
2023-12-10T16:41:36.788Z,7.32
2023-12-10T16:44:39.283Z,7.15
2023-12-10T16:47:41.994Z,8.13
2023-12-10T16:50:44.779Z,6.93
2023-12-10T16:53:47.271Z,5.65
2023-12-10T16:56:51.165Z,5.93
2023-12-10T16:59:53.686Z,3.45
2023-12-10T17:02:56.461Z,6.05
2023-12-10T17:05:59.199Z,8.68
2023-12-10T17:09:01.811Z,8.88
2023-12-10T17:12:06.821Z,8.82
2023-12-10T17:15:10.435Z,9.25
2023-12-10T17:18:13.077Z,10.25
2023-12-10T17:21:15.631Z,9.30
2023-12-10T17:24:19.434Z,12.05
2023-12-10T17:27:24.001Z,8.90
2023-12-10T17:30:26.643Z,13.80
2023-12-10T17:33:30.273Z,10.07
2023-12-10T17:36:32.992Z,10.15
2023-12-10T17:39:35.647Z,9.25
2023-12-10T17:42:39.590Z,12.18
2023-12-10T17:45:42.198Z,8.07
2023-12-10T17:48:45.260Z,8.18
2023-12-10T17:51:48.923Z,12.40
2023-12-10T17:54:51.651Z,15.85
2023-12-10T17:57:55.664Z,13.00
2023-12-10T18:00:58.340Z,11.00
2023-12-10T18:04:00.967Z,5.00
2023-12-10T18:07:03.707Z,7.97
2023-12-10T18:10:07.304Z,11.77
2023-12-10T18:13:11.287Z,10.73
2023-12-10T18:16:21.227Z,10.07
2023-12-10T18:19:23.830Z,5.95
2023-12-10T18:22:26.758Z,11.05
2023-12-10T18:25:29.693Z,9.07
2023-12-10T18:28:35.037Z,12.48
2023-12-10T18:31:37.572Z,11.52
2023-12-10T18:34:40.472Z,7.93
2023-12-10T18:37:43.187Z,10.68
2023-12-10T18:40:45.707Z,5.85
2023-12-10T18:43:49.555Z,13.00
2023-12-10T18:46:52.149Z,11.07
2023-12-10T18:49:54.761Z,10.07
2023-12-10T18:52:57.394Z,7.63
2023-12-10T18:55:59.896Z,10.30
2023-12-10T18:59:03.795Z,7.95
2023-12-10T19:02:06.934Z,9.88
2023-12-10T19:05:09.637Z,7.55
2023-12-10T19:08:12.271Z,12.48
2023-12-10T19:11:14.975Z,9.30
2023-12-10T19:14:18.867Z,10.32
2023-12-10T19:17:21.940Z,10.25
2023-12-10T19:20:25.875Z,10.10
2023-12-10T19:23:28.691Z,11.75
2023-12-10T19:26:31.181Z,9.02
2023-12-10T19:29:35.086Z,10.25
2023-12-10T19:32:37.933Z,13.13
2023-12-10T19:35:40.535Z,7.13
2023-12-10T19:38:44.661Z,14.32
2023-12-10T19:41:47.172Z,11.18
2023-12-10T19:44:50.965Z,12.05
2023-12-10T19:47:53.753Z,12.82
2023-12-10T19:50:56.394Z,17.92
2023-12-10T19:53:59.176Z,11.55
2023-12-10T19:57:01.676Z,15.90
2023-12-10T20:00:07.012Z,10.32
2023-12-10T20:03:09.546Z,11.10
2023-12-10T20:06:12.081Z,14.68
2023-12-10T20:09:14.572Z,16.40
2023-12-10T20:12:17.075Z,10.73
2023-12-10T20:15:20.882Z,15.60
2023-12-10T20:18:23.783Z,19.60
2023-12-10T20:21:26.728Z,12.73
2023-12-10T20:24:34.848Z,11.45
2023-12-10T20:27:39.432Z,14.43
2023-12-10T20:30:44.285Z,11.88
2023-12-10T20:33:46.955Z,10.60
2023-12-10T20:36:49.650Z,15.80
2023-12-10T20:39:52.788Z,17.15
2023-12-10T20:42:55.819Z,13.73
2023-12-10T20:45:59.691Z,17.80
2023-12-10T20:49:02.618Z,9.20
2023-12-10T20:52:05.869Z,11.57
2023-12-10T20:55:08.919Z,13.05
2023-12-10T20:58:13.399Z,13.07
2023-12-10T21:01:17.831Z,14.02
2023-12-10T21:04:20.702Z,18.75
2023-12-10T21:07:23.298Z,11.38
2023-12-10T21:10:25.880Z,12.15
2023-12-10T21:13:28.423Z,13.32
2023-12-10T21:16:32.293Z,14.52
2023-12-10T21:19:35.815Z,13.07
2023-12-10T21:22:38.455Z,12.57
2023-12-10T21:25:41.752Z,12.95
2023-12-10T21:28:44.286Z,14.85
2023-12-10T21:31:48.135Z,13.52
2023-12-10T21:34:50.872Z,11.93
2023-12-10T21:37:53.515Z,10.25
2023-12-10T21:40:56.040Z,7.00
2023-12-10T21:43:58.807Z,17.95
2023-12-10T21:47:02.722Z,11.43
2023-12-10T21:50:05.979Z,10.85
2023-12-10T21:53:08.987Z,16.35
2023-12-10T21:56:11.667Z,14.45
2023-12-10T21:59:14.194Z,12.52
2023-12-10T22:02:19.989Z,15.20
2023-12-10T22:05:22.517Z,13.20
2023-12-10T22:08:25.496Z,10.98
2023-12-10T22:11:28.400Z,13.18
2023-12-10T22:14:30.870Z,18.13
2023-12-10T22:17:34.956Z,21.08
2023-12-10T22:20:37.713Z,14.88
2023-12-10T22:23:41.269Z,13.93
2023-12-10T22:26:44.074Z,11.27
2023-12-10T22:29:46.611Z,14.98
2023-12-10T22:32:56.807Z,8.55
2023-12-10T22:35:59.415Z,17.70
2023-12-10T22:39:04.851Z,14.95
2023-12-10T22:42:07.646Z,13.63
2023-12-10T22:45:11.332Z,17.20
2023-12-10T22:48:15.256Z,17.55
2023-12-10T22:51:17.803Z,12.07
2023-12-10T22:54:20.325Z,14.40
2023-12-10T22:57:22.872Z,15.13
2023-12-10T23:00:25.407Z,14.35
2023-12-10T23:03:29.314Z,20.45
2023-12-10T23:06:31.883Z,14.25
2023-12-10T23:09:34.472Z,11.70
2023-12-10T23:12:37.022Z,15.05
2023-12-10T23:15:39.574Z,15.70
2023-12-10T23:18:43.745Z,15.48
2023-12-10T23:21:46.361Z,15.65
2023-12-10T23:24:49.378Z,14.90
2023-12-10T23:27:52.493Z,20.02
2023-12-10T23:30:55.080Z,15.15
2023-12-10T23:34:00.003Z,12.10
2023-12-10T23:37:02.749Z,18.45
2023-12-10T23:40:06.393Z,19.90
2023-12-10T23:43:09.061Z,18.17
2023-12-10T23:46:12.367Z,21.17
2023-12-10T23:49:16.440Z,24.75
2023-12-10T23:52:19.024Z,19.73
2023-12-10T23:55:21.945Z,13.52
2023-12-10T23:58:24.524Z,15.07
